sensor_id;sensor_type;location;lat;lon;timestamp;pressure;altitude;pressure_sealevel;temperature;humidity
42887;BME280;29032;56.028;92.904;2024-02-23T00:00:32;102233.69;;;-21.37;34.21
42887;BME280;29032;56.028;92.904;2024-02-23T00:05:34;102240.06;;;-21.33;34.16
42887;BME280;29032;56.028;92.904;2024-02-23T00:10:38;102238.94;;;-21.11;33.58
42887;BME280;29032;56.028;92.904;2024-02-23T00:15:40;102230.38;;;-20.98;33.84
42887;BME280;29032;56.028;92.904;2024-02-23T00:20:42;102238.34;;;-20.93;33.38
42887;BME280;29032;56.028;92.904;2024-02-23T00:25:46;102240.44;;;-20.95;33.54
42887;BME280;29032;56.028;92.904;2024-02-23T00:30:48;102238.41;;;-21.13;33.46
42887;BME280;29032;56.028;92.904;2024-02-23T00:35:50;102243.25;;;-21.31;34.42
42887;BME280;29032;56.028;92.904;2024-02-23T00:40:54;102258.19;;;-21.45;34.50
42887;BME280;29032;56.028;92.904;2024-02-23T00:46:14;102230.56;;;-21.59;34.39
42887;BME280;29032;56.028;92.904;2024-02-23T00:51:16;102260.34;;;-21.57;34.69
42887;BME280;29032;56.028;92.904;2024-02-23T00:56:19;102247.13;;;-21.77;34.68
42887;BME280;29032;56.028;92.904;2024-02-23T01:01:21;102255.09;;;-21.98;34.92
42887;BME280;29032;56.028;92.904;2024-02-23T01:06:24;102252.97;;;-22.26;36.39
42887;BME280;29032;56.028;92.904;2024-02-23T01:11:27;102258.75;;;-22.50;35.65
42887;BME280;29032;56.028;92.904;2024-02-23T01:16:29;102261.41;;;-22.75;36.68
42887;BME280;29032;56.028;92.904;2024-02-23T01:21:31;102247.00;;;-22.95;36.60
42887;BME280;29032;56.028;92.904;2024-02-23T01:26:35;102257.13;;;-22.81;36.06
42887;BME280;29032;56.028;92.904;2024-02-23T01:31:37;102278.91;;;-22.74;38.09
42887;BME280;29032;56.028;92.904;2024-02-23T01:36:40;102281.88;;;-22.45;37.42
42887;BME280;29032;56.028;92.904;2024-02-23T01:41:43;102290.16;;;-22.11;36.44
42887;BME280;29032;56.028;92.904;2024-02-23T01:46:45;102284.31;;;-22.03;35.57
42887;BME280;29032;56.028;92.904;2024-02-23T01:51:48;102286.69;;;-22.12;36.04
42887;BME280;29032;56.028;92.904;2024-02-23T01:56:52;102292.81;;;-22.11;35.77
42887;BME280;29032;56.028;92.904;2024-02-23T02:01:55;102297.31;;;-22.01;35.68
42887;BME280;29032;56.028;92.904;2024-02-23T02:06:58;102307.69;;;-21.90;35.32
42887;BME280;29032;56.028;92.904;2024-02-23T02:12:03;102317.22;;;-21.78;37.87
42887;BME280;29032;56.028;92.904;2024-02-23T02:17:05;102313.81;;;-21.64;36.43
42887;BME280;29032;56.028;92.904;2024-02-23T02:22:07;102313.50;;;-21.57;35.31
42887;BME280;29032;56.028;92.904;2024-02-23T02:27:11;102323.03;;;-21.51;35.33
42887;BME280;29032;56.028;92.904;2024-02-23T02:32:13;102324.91;;;-21.46;35.45
42887;BME280;29032;56.028;92.904;2024-02-23T02:37:15;102321.19;;;-21.35;34.28
42887;BME280;29032;56.028;92.904;2024-02-23T02:42:19;102329.13;;;-21.30;34.70
42887;BME280;29032;56.028;92.904;2024-02-23T02:47:21;102332.53;;;-21.04;34.24
42887;BME280;29032;56.028;92.904;2024-02-23T02:52:23;102324.78;;;-20.95;34.48
42887;BME280;29032;56.028;92.904;2024-02-23T02:57:27;102329.50;;;-20.72;33.99
42887;BME280;29032;56.028;92.904;2024-02-23T03:02:29;102320.66;;;-20.57;34.57
42887;BME280;29032;56.028;92.904;2024-02-23T03:07:31;102325.34;;;-20.44;33.58
42887;BME280;29032;56.028;92.904;2024-02-23T03:12:35;102324.69;;;-20.21;33.36
42887;BME280;29032;56.028;92.904;2024-02-23T03:17:37;102328.00;;;-20.00;33.35
42887;BME280;29032;56.028;92.904;2024-02-23T03:22:39;102323.94;;;-19.87;34.24
42887;BME280;29032;56.028;92.904;2024-02-23T03:27:42;102319.63;;;-19.83;33.16
42887;BME280;29032;56.028;92.904;2024-02-23T03:32:45;102315.44;;;-19.94;33.44
42887;BME280;29032;56.028;92.904;2024-02-23T03:37:47;102318.81;;;-19.83;33.75
42887;BME280;29032;56.028;92.904;2024-02-23T03:42:50;102315.31;;;-19.74;34.28
42887;BME280;29032;56.028;92.904;2024-02-23T03:47:52;102325.28;;;-19.61;33.75
42887;BME280;29032;56.028;92.904;2024-02-23T03:52:54;102303.44;;;-19.63;33.99
42887;BME280;29032;56.028;92.904;2024-02-23T03:57:58;102312.81;;;-19.36;34.85
42887;BME280;29032;56.028;92.904;2024-02-23T04:03:00;102320.19;;;-19.28;33.88
42887;BME280;29032;56.028;92.904;2024-02-23T04:08:03;102326.44;;;-19.14;34.79
42887;BME280;29032;56.028;92.904;2024-02-23T04:13:07;102337.47;;;-18.96;34.11
42887;BME280;29032;56.028;92.904;2024-02-23T04:18:09;102340.22;;;-18.83;34.40
42887;BME280;29032;56.028;92.904;2024-02-23T04:23:11;102337.41;;;-18.67;34.04
42887;BME280;29032;56.028;92.904;2024-02-23T04:28:15;102337.75;;;-18.55;34.60
42887;BME280;29032;56.028;92.904;2024-02-23T04:33:17;102334.09;;;-18.40;34.22
42887;BME280;29032;56.028;92.904;2024-02-23T04:38:19;102332.59;;;-18.28;33.83
42887;BME280;29032;56.028;92.904;2024-02-23T04:43:23;102313.81;;;-18.23;33.91
42887;BME280;29032;56.028;92.904;2024-02-23T04:48:26;102319.59;;;-17.97;34.68
42887;BME280;29032;56.028;92.904;2024-02-23T04:53:28;102320.03;;;-17.89;34.41
42887;BME280;29032;56.028;92.904;2024-02-23T04:58:32;102319.16;;;-17.71;33.97
42887;BME280;29032;56.028;92.904;2024-02-23T05:03:34;102317.03;;;-17.55;34.33
42887;BME280;29032;56.028;92.904;2024-02-23T05:08:36;102311.13;;;-17.39;34.30
42887;BME280;29032;56.028;92.904;2024-02-23T05:13:40;102311.16;;;-17.25;35.04
42887;BME280;29032;56.028;92.904;2024-02-23T05:18:42;102310.56;;;-17.08;34.80
42887;BME280;29032;56.028;92.904;2024-02-23T05:23:44;102301.94;;;-16.91;34.48
42887;BME280;29032;56.028;92.904;2024-02-23T05:28:48;102305.09;;;-16.75;35.11
42887;BME280;29032;56.028;92.904;2024-02-23T05:33:50;102299.66;;;-16.70;34.51
42887;BME280;29032;56.028;92.904;2024-02-23T05:38:52;102303.50;;;-16.63;34.41
42887;BME280;29032;56.028;92.904;2024-02-23T05:43:56;102298.28;;;-16.32;34.51
42887;BME280;29032;56.028;92.904;2024-02-23T05:48:58;102294.84;;;-16.01;33.36
42887;BME280;29032;56.028;92.904;2024-02-23T05:54:01;102284.97;;;-15.70;33.65
42887;BME280;29032;56.028;92.904;2024-02-23T05:59:04;102283.09;;;-15.38;33.77
42887;BME280;29032;56.028;92.904;2024-02-23T06:04:06;102287.50;;;-15.02;32.94
42887;BME280;29032;56.028;92.904;2024-02-23T06:09:08;102289.72;;;-15.04;32.97
42887;BME280;29032;56.028;92.904;2024-02-23T06:14:12;102282.63;;;-15.40;33.80
42887;BME280;29032;56.028;92.904;2024-02-23T06:19:14;102279.25;;;-15.77;33.93
42887;BME280;29032;56.028;92.904;2024-02-23T06:24:17;102280.94;;;-15.58;33.96
42887;BME280;29032;56.028;92.904;2024-02-23T06:29:20;102275.97;;;-15.43;33.91
42887;BME280;29032;56.028;92.904;2024-02-23T06:34:22;102277.69;;;-15.16;33.80
42887;BME280;29032;56.028;92.904;2024-02-23T06:39:25;102275.69;;;-15.01;33.44
42887;BME280;29032;56.028;92.904;2024-02-23T06:44:28;102271.13;;;-14.75;34.21
42887;BME280;29032;56.028;92.904;2024-02-23T06:49:30;102272.13;;;-14.53;33.03
42887;BME280;29032;56.028;92.904;2024-02-23T06:54:32;102278.00;;;-14.43;33.62
42887;BME280;29032;56.028;92.904;2024-02-23T06:59:36;102283.38;;;-14.43;34.11
42887;BME280;29032;56.028;92.904;2024-02-23T07:04:38;102276.56;;;-14.14;32.97
42887;BME280;29032;56.028;92.904;2024-02-23T07:09:40;102282.06;;;-13.85;33.46
42887;BME280;29032;56.028;92.904;2024-02-23T07:14:44;102280.28;;;-13.63;32.71
42887;BME280;29032;56.028;92.904;2024-02-23T07:19:46;102275.28;;;-13.99;33.10
42887;BME280;29032;56.028;92.904;2024-02-23T07:24:48;102269.44;;;-14.02;33.05
42887;BME280;29032;56.028;92.904;2024-02-23T07:29:52;102267.91;;;-13.56;32.44
42887;BME280;29032;56.028;92.904;2024-02-23T07:34:54;102263.31;;;-13.55;32.56
42887;BME280;29032;56.028;92.904;2024-02-23T07:39:56;102270.16;;;-13.58;32.41
42887;BME280;29032;56.028;92.904;2024-02-23T07:45:00;102264.34;;;-13.30;32.29
42887;BME280;29032;56.028;92.904;2024-02-23T07:50:02;102270.22;;;-12.99;32.17
42887;BME280;29032;56.028;92.904;2024-02-23T07:55:05;102274.56;;;-12.56;31.66
42887;BME280;29032;56.028;92.904;2024-02-23T08:00:10;102268.81;;;-12.25;31.79
42887;BME280;29032;56.028;92.904;2024-02-23T08:05:15;102267.88;;;-12.29;31.19
42887;BME280;29032;56.028;92.904;2024-02-23T08:10:19;102264.25;;;-12.54;31.12
42887;BME280;29032;56.028;92.904;2024-02-23T08:15:23;102256.19;;;-12.54;31.31
42887;BME280;29032;56.028;92.904;2024-02-23T08:25:47;102258.63;;;-12.90;31.57
42887;BME280;29032;56.028;92.904;2024-02-23T08:30:50;102254.25;;;-13.04;31.58
42887;BME280;29032;56.028;92.904;2024-02-23T08:35:53;102250.91;;;-13.01;31.38
42887;BME280;29032;56.028;92.904;2024-02-23T08:40:55;102255.66;;;-12.77;31.71
42887;BME280;29032;56.028;92.904;2024-02-23T08:45:58;102254.00;;;-12.60;30.99
42887;BME280;29032;56.028;92.904;2024-02-23T08:51:01;102268.63;;;-12.41;31.10
42887;BME280;29032;56.028;92.904;2024-02-23T08:56:03;102262.75;;;-12.43;31.13
42887;BME280;29032;56.028;92.904;2024-02-23T09:01:07;102256.09;;;-12.66;31.02
42887;BME280;29032;56.028;92.904;2024-02-23T09:06:09;102253.25;;;-12.70;31.08
42887;BME280;29032;56.028;92.904;2024-02-23T09:11:12;102255.63;;;-12.68;30.31
42887;BME280;29032;56.028;92.904;2024-02-23T09:16:16;102249.50;;;-12.77;31.09
42887;BME280;29032;56.028;92.904;2024-02-23T09:21:18;102246.25;;;-12.92;30.66
42887;BME280;29032;56.028;92.904;2024-02-23T09:26:20;102242.44;;;-13.20;31.88
42887;BME280;29032;56.028;92.904;2024-02-23T09:31:24;102244.91;;;-13.06;31.51
42887;BME280;29032;56.028;92.904;2024-02-23T09:36:26;102252.53;;;-13.08;31.33
42887;BME280;29032;56.028;92.904;2024-02-23T09:41:28;102259.44;;;-13.28;31.87
42887;BME280;29032;56.028;92.904;2024-02-23T09:46:32;102254.34;;;-13.68;31.45
42887;BME280;29032;56.028;92.904;2024-02-23T09:51:35;102239.78;;;-13.76;32.45
42887;BME280;29032;56.028;92.904;2024-02-23T09:56:37;102240.00;;;-13.42;32.12
42887;BME280;29032;56.028;92.904;2024-02-23T10:01:41;102240.50;;;-13.11;31.34
42887;BME280;29032;56.028;92.904;2024-02-23T10:06:44;102254.72;;;-13.02;30.89
42887;BME280;29032;56.028;92.904;2024-02-23T10:11:52;102252.84;;;-13.48;31.08
42887;BME280;29032;56.028;92.904;2024-02-23T10:16:56;102253.19;;;-13.58;31.59
42887;BME280;29032;56.028;92.904;2024-02-23T10:21:58;102241.94;;;-13.52;31.28
42887;BME280;29032;56.028;92.904;2024-02-23T10:27:01;102240.66;;;-13.45;31.60
42887;BME280;29032;56.028;92.904;2024-02-23T10:32:06;102243.16;;;-13.40;31.31
42887;BME280;29032;56.028;92.904;2024-02-23T10:37:09;102239.53;;;-13.44;31.55
42887;BME280;29032;56.028;92.904;2024-02-23T10:42:13;102241.78;;;-13.55;30.99
42887;BME280;29032;56.028;92.904;2024-02-23T10:47:18;102244.19;;;-13.71;31.96
42887;BME280;29032;56.028;92.904;2024-02-23T10:52:24;102241.47;;;-13.62;31.51
42887;BME280;29032;56.028;92.904;2024-02-23T10:57:26;102234.03;;;-13.57;31.16
42887;BME280;29032;56.028;92.904;2024-02-23T11:02:31;102249.22;;;-13.52;31.03
42887;BME280;29032;56.028;92.904;2024-02-23T11:07:38;102246.06;;;-13.63;31.14
42887;BME280;29032;56.028;92.904;2024-02-23T11:12:41;102248.34;;;-13.73;31.29
42887;BME280;29032;56.028;92.904;2024-02-23T11:17:50;102249.94;;;-13.81;31.31
42887;BME280;29032;56.028;92.904;2024-02-23T11:22:52;102243.31;;;-13.92;31.52
42887;BME280;29032;56.028;92.904;2024-02-23T11:27:54;102245.84;;;-14.05;31.23
42887;BME280;29032;56.028;92.904;2024-02-23T11:33:00;102248.41;;;-14.17;31.05
42887;BME280;29032;56.028;92.904;2024-02-23T11:38:04;102250.94;;;-14.29;31.46
42887;BME280;29032;56.028;92.904;2024-02-23T11:43:07;102248.41;;;-14.34;31.36
42887;BME280;29032;56.028;92.904;2024-02-23T11:48:11;102256.47;;;-14.34;31.61
42887;BME280;29032;56.028;92.904;2024-02-23T11:53:13;102255.72;;;-14.43;31.55
42887;BME280;29032;56.028;92.904;2024-02-23T11:58:16;102263.31;;;-14.37;31.67
42887;BME280;29032;56.028;92.904;2024-02-23T12:03:19;102268.66;;;-14.28;31.53
42887;BME280;29032;56.028;92.904;2024-02-23T12:08:22;102274.03;;;-14.28;31.11
42887;BME280;29032;56.028;92.904;2024-02-23T12:13:24;102270.88;;;-14.30;31.27
42887;BME280;29032;56.028;92.904;2024-02-23T12:18:29;102271.31;;;-14.19;31.36
42887;BME280;29032;56.028;92.904;2024-02-23T12:23:41;102269.75;;;-14.03;31.24
42887;BME280;29032;56.028;92.904;2024-02-23T12:28:44;102285.09;;;-14.04;30.98
42887;BME280;29032;56.028;92.904;2024-02-23T12:33:48;102278.63;;;-14.03;31.18
42887;BME280;29032;56.028;92.904;2024-02-23T12:38:52;102278.47;;;-14.15;30.70
42887;BME280;29032;56.028;92.904;2024-02-23T12:43:54;102275.28;;;-14.34;31.00
42887;BME280;29032;56.028;92.904;2024-02-23T12:48:58;102275.59;;;-14.62;31.26
42887;BME280;29032;56.028;92.904;2024-02-23T12:54:00;102267.47;;;-14.96;31.90
42887;BME280;29032;56.028;92.904;2024-02-23T13:04:24;102267.78;;;-14.98;31.65
42887;BME280;29032;56.028;92.904;2024-02-23T13:09:27;102258.94;;;-14.98;32.60
42887;BME280;29032;56.028;92.904;2024-02-23T13:14:29;102255.00;;;-14.92;31.57
42887;BME280;29032;56.028;92.904;2024-02-23T13:19:33;102250.56;;;-14.88;31.77
42887;BME280;29032;56.028;92.904;2024-02-23T13:24:35;102245.97;;;-14.96;31.74
42887;BME280;29032;56.028;92.904;2024-02-23T13:29:37;102251.00;;;-15.03;31.94
42887;BME280;29032;56.028;92.904;2024-02-23T13:34:41;102251.56;;;-15.24;32.18
42887;BME280;29032;56.028;92.904;2024-02-23T13:39:43;102245.66;;;-15.43;32.80
42887;BME280;29032;56.028;92.904;2024-02-23T13:44:46;102246.97;;;-15.32;32.46
42887;BME280;29032;56.028;92.904;2024-02-23T13:49:49;102245.28;;;-15.19;32.42
42887;BME280;29032;56.028;92.904;2024-02-23T13:54:52;102247.03;;;-15.15;32.70
42887;BME280;29032;56.028;92.904;2024-02-23T13:59:54;102249.75;;;-15.06;32.74
42887;BME280;29032;56.028;92.904;2024-02-23T14:05:01;102252.16;;;-14.87;33.07
42887;BME280;29032;56.028;92.904;2024-02-23T14:10:04;102250.22;;;-14.95;32.20
42887;BME280;29032;56.028;92.904;2024-02-23T14:20:29;102250.31;;;-15.26;32.04
42887;BME280;29032;56.028;92.904;2024-02-23T14:25:50;102245.66;;;-15.43;32.27
42887;BME280;29032;56.028;92.904;2024-02-23T14:30:52;102254.38;;;-15.69;32.93
42887;BME280;29032;56.028;92.904;2024-02-23T14:35:56;102255.06;;;-15.54;32.72
42887;BME280;29032;56.028;92.904;2024-02-23T14:40:58;102248.69;;;-15.67;32.24
42887;BME280;29032;56.028;92.904;2024-02-23T14:46:00;102247.94;;;-15.90;31.98
42887;BME280;29032;56.028;92.904;2024-02-23T14:51:04;102252.19;;;-16.11;33.30
42887;BME280;29032;56.028;92.904;2024-02-23T14:56:07;102245.69;;;-15.97;33.33
42887;BME280;29032;56.028;92.904;2024-02-23T15:01:10;102254.09;;;-15.58;32.97
42887;BME280;29032;56.028;92.904;2024-02-23T15:06:14;102251.72;;;-15.29;33.35
42887;BME280;29032;56.028;92.904;2024-02-23T15:11:16;102253.50;;;-15.16;32.94
42887;BME280;29032;56.028;92.904;2024-02-23T15:16:18;102251.63;;;-15.06;32.73
42887;BME280;29032;56.028;92.904;2024-02-23T15:21:22;102243.13;;;-15.00;33.43
42887;BME280;29032;56.028;92.904;2024-02-23T15:26:25;102236.00;;;-15.04;32.98
42887;BME280;29032;56.028;92.904;2024-02-23T15:31:27;102240.44;;;-15.08;33.30
42887;BME280;29032;56.028;92.904;2024-02-23T15:36:31;102233.75;;;-15.11;33.88
42887;BME280;29032;56.028;92.904;2024-02-23T15:41:33;102230.94;;;-15.15;33.76
42887;BME280;29032;56.028;92.904;2024-02-23T15:46:36;102229.00;;;-15.23;33.73
42887;BME280;29032;56.028;92.904;2024-02-23T15:51:40;102220.13;;;-15.32;33.53
42887;BME280;29032;56.028;92.904;2024-02-23T15:56:42;102223.56;;;-15.40;33.57
42887;BME280;29032;56.028;92.904;2024-02-23T16:01:44;102215.03;;;-15.42;33.61
42887;BME280;29032;56.028;92.904;2024-02-23T16:06:48;102205.41;;;-15.43;33.50
42887;BME280;29032;56.028;92.904;2024-02-23T16:12:09;102213.94;;;-15.41;33.65
42887;BME280;29032;56.028;92.904;2024-02-23T16:17:11;102202.38;;;-15.50;33.85
42887;BME280;29032;56.028;92.904;2024-02-23T16:22:15;102204.91;;;-15.45;33.95
42887;BME280;29032;56.028;92.904;2024-02-23T16:27:18;102206.50;;;-15.44;33.47
42887;BME280;29032;56.028;92.904;2024-02-23T16:32:20;102200.28;;;-15.53;33.43
42887;BME280;29032;56.028;92.904;2024-02-23T16:37:24;102193.00;;;-15.61;33.74
42887;BME280;29032;56.028;92.904;2024-02-23T16:42:26;102185.25;;;-15.72;33.74
42887;BME280;29032;56.028;92.904;2024-02-23T16:47:29;102179.53;;;-15.79;33.81
42887;BME280;29032;56.028;92.904;2024-02-23T16:52:33;102176.19;;;-15.84;33.73
42887;BME280;29032;56.028;92.904;2024-02-23T16:57:35;102167.88;;;-16.05;34.04
42887;BME280;29032;56.028;92.904;2024-02-23T17:02:38;102166.34;;;-16.29;34.37
42887;BME280;29032;56.028;92.904;2024-02-23T17:07:42;102163.06;;;-16.48;34.92
42887;BME280;29032;56.028;92.904;2024-02-23T17:12:44;102165.09;;;-16.67;34.62
42887;BME280;29032;56.028;92.904;2024-02-23T17:17:46;102153.34;;;-16.80;34.94
42887;BME280;29032;56.028;92.904;2024-02-23T17:22:51;102146.47;;;-16.72;34.77
42887;BME280;29032;56.028;92.904;2024-02-23T17:27:53;102144.72;;;-16.77;34.60
42887;BME280;29032;56.028;92.904;2024-02-23T17:32:55;102143.84;;;-17.00;34.69
42887;BME280;29032;56.028;92.904;2024-02-23T17:37:59;102138.75;;;-17.10;34.90
42887;BME280;29032;56.028;92.904;2024-02-23T17:43:01;102133.91;;;-17.36;35.26
42887;BME280;29032;56.028;92.904;2024-02-23T17:48:04;102125.50;;;-17.43;35.82
42887;BME280;29032;56.028;92.904;2024-02-23T17:53:08;102129.38;;;-17.49;35.22
42887;BME280;29032;56.028;92.904;2024-02-23T17:58:11;102128.97;;;-17.56;35.95
42887;BME280;29032;56.028;92.904;2024-02-23T18:03:13;102120.84;;;-17.51;35.41
42887;BME280;29032;56.028;92.904;2024-02-23T18:08:17;102124.00;;;-17.49;35.27
42887;BME280;29032;56.028;92.904;2024-02-23T18:13:22;102115.91;;;-17.71;35.82
42887;BME280;29032;56.028;92.904;2024-02-23T18:18:26;102118.91;;;-17.86;36.39
42887;BME280;29032;56.028;92.904;2024-02-23T18:23:32;102113.56;;;-17.86;35.77
42887;BME280;29032;56.028;92.904;2024-02-23T18:28:35;102105.59;;;-17.78;35.73
42887;BME280;29032;56.028;92.904;2024-02-23T18:33:38;102109.19;;;-17.69;35.81
42887;BME280;29032;56.028;92.904;2024-02-23T18:38:42;102105.22;;;-17.57;35.73
42887;BME280;29032;56.028;92.904;2024-02-23T18:49:04;102088.66;;;-17.46;34.98
42887;BME280;29032;56.028;92.904;2024-02-23T18:54:08;102090.63;;;-17.38;35.01
42887;BME280;29032;56.028;92.904;2024-02-23T18:59:10;102084.19;;;-17.37;35.11
42887;BME280;29032;56.028;92.904;2024-02-23T19:04:13;102092.13;;;-17.45;35.17
42887;BME280;29032;56.028;92.904;2024-02-23T19:09:16;102082.44;;;-17.55;34.93
42887;BME280;29032;56.028;92.904;2024-02-23T19:14:19;102084.31;;;-17.55;35.28
42887;BME280;29032;56.028;92.904;2024-02-23T19:19:21;102079.63;;;-17.50;35.07
42887;BME280;29032;56.028;92.904;2024-02-23T19:24:43;102065.16;;;-17.49;34.82
42887;BME280;29032;56.028;92.904;2024-02-23T19:29:45;102062.00;;;-17.51;35.32
42887;BME280;29032;56.028;92.904;2024-02-23T19:34:48;102059.19;;;-17.68;35.32
42887;BME280;29032;56.028;92.904;2024-02-23T19:39:52;102059.66;;;-17.80;35.73
42887;BME280;29032;56.028;92.904;2024-02-23T19:44:54;102051.19;;;-17.96;35.38
42887;BME280;29032;56.028;92.904;2024-02-23T19:49:56;102050.31;;;-18.05;35.49
42887;BME280;29032;56.028;92.904;2024-02-23T19:55:00;102044.97;;;-18.05;36.22
42887;BME280;29032;56.028;92.904;2024-02-23T20:00:03;102032.78;;;-18.11;35.50
42887;BME280;29032;56.028;92.904;2024-02-23T20:05:07;102028.13;;;-18.05;35.36
42887;BME280;29032;56.028;92.904;2024-02-23T20:10:10;102024.66;;;-18.06;35.65
42887;BME280;29032;56.028;92.904;2024-02-23T20:15:13;102024.38;;;-18.18;36.13
42887;BME280;29032;56.028;92.904;2024-02-23T20:20:16;102015.19;;;-18.12;35.33
42887;BME280;29032;56.028;92.904;2024-02-23T20:25:20;102008.53;;;-18.01;35.93
42887;BME280;29032;56.028;92.904;2024-02-23T20:30:22;102011.19;;;-18.01;35.00
42887;BME280;29032;56.028;92.904;2024-02-23T20:35:24;102001.91;;;-18.03;35.15
42887;BME280;29032;56.028;92.904;2024-02-23T20:40:28;102005.28;;;-17.98;34.76
42887;BME280;29032;56.028;92.904;2024-02-23T20:45:30;101994.59;;;-17.98;35.22
42887;BME280;29032;56.028;92.904;2024-02-23T20:50:32;102003.88;;;-18.09;35.38
42887;BME280;29032;56.028;92.904;2024-02-23T20:55:36;101999.72;;;-18.15;35.06
42887;BME280;29032;56.028;92.904;2024-02-23T21:00:38;101987.47;;;-18.30;34.99
42887;BME280;29032;56.028;92.904;2024-02-23T21:05:40;101987.38;;;-18.38;35.82
42887;BME280;29032;56.028;92.904;2024-02-23T21:10:44;101974.19;;;-18.49;35.21
42887;BME280;29032;56.028;92.904;2024-02-23T21:15:46;101972.13;;;-18.52;35.52
42887;BME280;29032;56.028;92.904;2024-02-23T21:20:48;101971.25;;;-18.47;35.13
42887;BME280;29032;56.028;92.904;2024-02-23T21:25:52;101949.75;;;-18.42;35.31
42887;BME280;29032;56.028;92.904;2024-02-23T21:30:54;101954.22;;;-18.37;35.46
42887;BME280;29032;56.028;92.904;2024-02-23T21:35:56;101945.81;;;-18.31;35.07
42887;BME280;29032;56.028;92.904;2024-02-23T21:41:18;101950.25;;;-18.26;35.17
42887;BME280;29032;56.028;92.904;2024-02-23T21:46:21;101951.16;;;-18.44;34.98
42887;BME280;29032;56.028;92.904;2024-02-23T21:51:23;101946.91;;;-18.45;35.16
42887;BME280;29032;56.028;92.904;2024-02-23T21:56:26;101943.13;;;-18.72;34.95
42887;BME280;29032;56.028;92.904;2024-02-23T22:01:28;101942.28;;;-19.00;35.08
42887;BME280;29032;56.028;92.904;2024-02-23T22:06:31;101932.66;;;-19.15;34.95
42887;BME280;29032;56.028;92.904;2024-02-23T22:11:34;101938.28;;;-19.30;35.11
42887;BME280;29032;56.028;92.904;2024-02-23T22:16:37;101924.94;;;-19.30;36.00
42887;BME280;29032;56.028;92.904;2024-02-23T22:21:39;101929.63;;;-19.22;36.11
42887;BME280;29032;56.028;92.904;2024-02-23T22:26:42;101928.91;;;-19.14;35.26
42887;BME280;29032;56.028;92.904;2024-02-23T22:31:45;101926.28;;;-19.00;35.59
42887;BME280;29032;56.028;92.904;2024-02-23T22:36:48;101925.41;;;-18.95;35.34
42887;BME280;29032;56.028;92.904;2024-02-23T22:41:52;101909.09;;;-18.94;35.62
42887;BME280;29032;56.028;92.904;2024-02-23T22:46:54;101912.25;;;-18.92;35.48
42887;BME280;29032;56.028;92.904;2024-02-23T22:51:56;101913.25;;;-18.88;35.97
42887;BME280;29032;56.028;92.904;2024-02-23T22:57:00;101902.97;;;-18.81;35.13
42887;BME280;29032;56.028;92.904;2024-02-23T23:02:03;101903.28;;;-18.82;34.62
42887;BME280;29032;56.028;92.904;2024-02-23T23:07:05;101906.13;;;-18.92;35.49
42887;BME280;29032;56.028;92.904;2024-02-23T23:12:09;101897.63;;;-18.94;34.65
42887;BME280;29032;56.028;92.904;2024-02-23T23:17:11;101908.38;;;-18.99;34.56
42887;BME280;29032;56.028;92.904;2024-02-23T23:22:13;101901.16;;;-18.99;34.60
42887;BME280;29032;56.028;92.904;2024-02-23T23:27:16;101895.84;;;-18.99;34.44
42887;BME280;29032;56.028;92.904;2024-02-23T23:32:19;101893.47;;;-19.00;34.65
42887;BME280;29032;56.028;92.904;2024-02-23T23:37:21;101889.72;;;-18.99;35.53
42887;BME280;29032;56.028;92.904;2024-02-23T23:42:24;101892.06;;;-18.98;34.69
42887;BME280;29032;56.028;92.904;2024-02-23T23:47:27;101894.47;;;-18.96;34.93
42887;BME280;29032;56.028;92.904;2024-02-23T23:52:29;101881.69;;;-18.99;34.60
42887;BME280;29032;56.028;92.904;2024-02-23T23:57:32;101887.44;;;-18.92;34.69
